Time;durP1;ratioP1;P1;durP2;ratioP2;P2;SDS_P1;SDS_P2;PMS_P1;PMS_P2;Temp;Humidity;BMP_temperature;BMP_pressure;BME280_temperature;BME280_humidity;BME280_pressure;Samples;Min_cycle;Max_cycle;Signal;HPM_P1;HPM_P2
2021/01/29 00:01:33;;;;;;;2.10;0.60;;;10.10;44.60;;;;;;5085115;28;20048;-73
2021/01/29 00:04:00;;;;;;;2.42;0.80;;;10.20;44.60;;;;;;5085039;28;20044;-73
2021/01/29 00:06:27;;;;;;;1.52;0.57;;;10.10;44.60;;;;;;5085415;28;20044;-73
2021/01/29 00:08:53;;;;;;;0.82;0.60;;;10.20;44.60;;;;;;5087600;28;20056;-73
2021/01/29 00:11:21;;;;;;;2.25;0.70;;;10.10;44.50;;;;;;5077698;28;20050;-73
2021/01/29 00:13:48;;;;;;;1.55;0.60;;;10.00;45.40;;;;;;5084928;28;20522;-74
2021/01/29 00:16:15;;;;;;;1.33;0.60;;;10.00;46.10;;;;;;5090180;28;20052;-73
2021/01/29 00:18:42;;;;;;;3.10;0.55;;;10.00;45.80;;;;;;5087940;28;20432;-73
2021/01/29 00:21:10;;;;;;;1.60;0.65;;;9.90;47.00;;;;;;5083086;28;20056;-73
2021/01/29 00:23:36;;;;;;;3.47;1.15;;;9.90;47.70;;;;;;5085516;28;20482;-73
2021/01/29 00:26:03;;;;;;;5.38;0.95;;;9.80;48.80;;;;;;5081750;28;20048;-73
2021/01/29 00:28:31;;;;;;;1.17;0.70;;;9.70;50.20;;;;;;5084396;28;20048;-73
2021/01/29 00:30:58;;;;;;;0.35;0.30;;;9.70;50.10;;;;;;5081153;28;20057;-72
2021/01/29 00:33:27;;;;;;;2.08;0.70;;;9.60;50.10;;;;;;5084845;28;20044;-73
2021/01/29 00:35:54;;;;;;;1.77;0.50;;;9.70;50.20;;;;;;5081374;28;20055;-73
2021/01/29 00:38:22;;;;;;;1.10;0.60;;;9.70;50.20;;;;;;5088835;28;20055;-76
2021/01/29 00:40:49;;;;;;;1.20;0.60;;;9.60;50.10;;;;;;5085895;28;20075;-72
2021/01/29 00:43:16;;;;;;;1.13;0.43;;;9.50;50.70;;;;;;5090952;28;20048;-72
2021/01/29 00:45:44;;;;;;;1.45;0.60;;;9.60;50.70;;;;;;5091952;28;20509;-75
2021/01/29 00:48:11;;;;;;;2.22;0.60;;;9.60;50.10;;;;;;5088092;28;20050;-74
2021/01/29 00:50:38;;;;;;;0.63;0.50;;;9.60;50.10;;;;;;5081198;28;20045;-76
2021/01/29 00:53:06;;;;;;;1.45;0.65;;;9.60;49.20;;;;;;5087982;28;20056;-72
2021/01/29 00:55:33;;;;;;;0.68;0.40;;;9.50;49.90;;;;;;5087901;28;20044;-72
2021/01/29 00:58:00;;;;;;;1.35;0.40;;;9.50;49.90;;;;;;5086466;28;20055;-74
2021/01/29 01:00:27;;;;;;;0.88;0.57;;;9.50;50.00;;;;;;5088091;28;20040;-77
2021/01/29 01:02:55;;;;;;;0.60;0.30;;;9.50;49.70;;;;;;5089004;28;20060;-75
2021/01/29 01:05:25;;;;;;;0.57;0.40;;;9.60;49.00;;;;;;5085955;28;20048;-76
2021/01/29 01:07:52;;;;;;;1.00;0.60;;;9.60;48.90;;;;;;5087955;28;20048;-74
2021/01/29 01:10:20;;;;;;;0.98;0.55;;;9.60;48.90;;;;;;5085906;28;20135;-73
2021/01/29 01:12:47;;;;;;;0.80;0.40;;;9.60;49.30;;;;;;5083988;28;20515;-73
2021/01/29 01:15:17;;;;;;;0.85;0.55;;;9.60;49.90;;;;;;5085472;28;20051;-72
2021/01/29 01:17:44;;;;;;;0.43;0.40;;;9.50;50.00;;;;;;5085974;28;20059;-74
2021/01/29 01:20:16;;;;;;;1.38;0.90;;;9.50;51.30;;;;;;5082089;28;20051;-74
2021/01/29 01:22:43;;;;;;;3.45;1.98;;;9.50;52.40;;;;;;5084198;28;20048;-74
2021/01/29 01:25:11;;;;;;;3.25;1.10;;;9.50;54.50;;;;;;5082818;28;20056;-73
2021/01/29 01:27:38;;;;;;;0.88;0.57;;;9.40;56.60;;;;;;5082501;28;20048;-74
2021/01/29 01:30:09;;;;;;;1.45;0.50;;;9.40;58.70;;;;;;5081152;28;20586;-71
2021/01/29 01:32:35;;;;;;;0.82;0.55;;;9.30;60.60;;;;;;5081176;28;20051;-72
2021/01/29 01:35:03;;;;;;;0.80;0.70;;;9.20;62.30;;;;;;5080542;28;20118;-72
2021/01/29 01:37:31;;;;;;;1.65;0.77;;;9.10;63.70;;;;;;5084164;28;20490;-73
2021/01/29 01:39:58;;;;;;;2.70;0.68;;;9.10;65.90;;;;;;5084487;28;20051;-72
2021/01/29 01:42:24;;;;;;;0.95;0.70;;;9.00;68.00;;;;;;5079518;28;20048;-72
2021/01/29 01:44:51;;;;;;;1.70;0.75;;;9.00;69.80;;;;;;5085976;28;20062;-75
2021/01/29 01:47:23;;;;;;;2.72;0.70;;;8.90;70.70;;;;;;5085706;28;20048;-73
2021/01/29 01:49:54;;;;;;;2.42;1.13;;;8.90;71.90;;;;;;5084943;28;20093;-75
2021/01/29 01:52:23;;;;;;;1.15;0.90;;;8.90;72.60;;;;;;5084763;28;20438;-72
2021/01/29 01:54:56;;;;;;;2.35;0.75;;;8.80;73.80;;;;;;5083746;28;20433;-75
2021/01/29 01:57:24;;;;;;;1.88;1.00;;;8.80;75.90;;;;;;5085146;28;20048;-74
2021/01/29 01:59:54;;;;;;;1.45;0.90;;;8.80;76.90;;;;;;5084919;28;20126;-74
2021/01/29 02:02:25;;;;;;;2.60;1.05;;;8.80;78.40;;;;;;5080856;28;20417;-74
2021/01/29 02:04:53;;;;;;;5.82;1.08;;;8.80;78.50;;;;;;5082103;28;20048;-75
2021/01/29 02:07:29;;;;;;;5.43;1.17;;;8.70;79.40;;;;;;5083203;28;20040;-74
2021/01/29 02:10:00;;;;;;;2.65;0.90;;;8.70;80.90;;;;;;5082488;28;20059;-74
2021/01/29 02:12:27;;;;;;;2.38;0.93;;;8.70;82.40;;;;;;5080744;28;20055;-74
2021/01/29 02:14:54;;;;;;;2.22;0.95;;;8.70;83.00;;;;;;5081681;28;20479;-75
2021/01/29 02:18:02;;;;;;;3.33;1.60;;;8.60;83.80;;;;;;5083656;28;20036;-74
2021/01/29 02:20:59;;;;;;;3.38;1.40;;;8.60;84.30;;;;;;5086093;28;20048;-75
2021/01/29 02:24:01;;;;;;;3.65;1.70;;;8.60;85.30;;;;;;5085012;28;20048;-75
2021/01/29 02:27:02;;;;;;;2.72;1.50;;;8.60;85.30;;;;;;5081854;28;20652;-75
2021/01/29 02:29:45;;;;;;;2.05;1.23;;;8.60;85.30;;;;;;5078484;28;20048;-75
2021/01/29 02:32:48;;;;;;;3.10;1.52;;;8.60;85.90;;;;;;5085294;28;20050;-74
2021/01/29 02:35:55;;;;;;;2.03;1.63;;;8.60;85.90;;;;;;5080826;28;20059;-74
2021/01/29 02:38:54;;;;;;;2.50;1.30;;;8.60;86.30;;;;;;5072081;28;20066;-73
2021/01/29 02:41:38;;;;;;;1.88;1.40;;;8.50;86.40;;;;;;5086964;28;20048;-75
2021/01/29 02:44:12;;;;;;;1.80;1.55;;;8.50;86.80;;;;;;5086293;28;20056;-74
2021/01/29 02:46:49;;;;;;;5.05;2.00;;;8.50;86.90;;;;;;5083690;28;20048;-75
2021/01/29 02:49:24;;;;;;;2.97;1.83;;;8.50;87.20;;;;;;5085401;28;20116;-74
2021/01/29 02:51:55;;;;;;;;;;;8.60;87.40;;;;;;5074767;28;20056;-75
2021/01/29 02:54:29;;;;;;;1.77;1.33;;;8.60;87.60;;;;;;5074629;28;20002;-73
2021/01/29 02:57:03;;;;;;;3.97;1.27;;;8.60;87.60;;;;;;5082671;28;20051;-75
2021/01/29 02:59:35;;;;;;;2.78;1.40;;;8.60;87.60;;;;;;5086029;28;20044;-75
2021/01/29 03:02:07;;;;;;;2.15;0.93;;;8.60;87.20;;;;;;5089236;28;20048;-74
2021/01/29 03:04:43;;;;;;;1.40;0.90;;;8.70;86.80;;;;;;5085193;28;20048;-74
2021/01/29 03:07:14;;;;;;;2.30;0.90;;;8.80;85.60;;;;;;5082634;28;20524;-75
2021/01/29 03:09:46;;;;;;;1.88;0.60;;;8.80;84.70;;;;;;5083973;28;20055;-74
2021/01/29 03:12:20;;;;;;;1.20;0.73;;;8.90;82.50;;;;;;5081135;28;20055;-75
2021/01/29 03:14:53;;;;;;;1.50;0.73;;;9.00;78.70;;;;;;5085952;28;20432;-75
2021/01/29 03:17:25;;;;;;;2.00;1.00;;;9.00;78.50;;;;;;5082639;28;20044;-75
2021/01/29 03:19:59;;;;;;;1.30;0.75;;;9.00;77.90;;;;;;5086100;28;20040;-74
2021/01/29 03:22:29;;;;;;;;;;;9.00;75.30;;;;;;5087673;28;20493;-74
2021/01/29 03:25:04;;;;;;;0.98;0.60;;;9.00;73.90;;;;;;5086486;28;20388;-74
2021/01/29 03:27:38;;;;;;;0.88;0.50;;;9.00;74.10;;;;;;5087532;28;20044;-74
2021/01/29 03:30:10;;;;;;;0.77;0.47;;;9.00;73.90;;;;;;5084142;28;20048;-75
2021/01/29 03:32:38;;;;;;;0.68;0.40;;;9.00;73.90;;;;;;5089948;28;20044;-76
2021/01/29 03:35:09;;;;;;;0.80;0.50;;;9.00;73.80;;;;;;5077631;28;20051;-75
2021/01/29 03:37:42;;;;;;;0.90;0.60;;;9.00;73.10;;;;;;5087940;28;20037;-75
2021/01/29 03:40:11;;;;;;;0.70;0.60;;;9.00;72.80;;;;;;5086085;28;20056;-75
2021/01/29 03:42:51;;;;;;;0.93;0.40;;;9.00;72.00;;;;;;5088123;28;20051;-75
2021/01/29 03:45:23;;;;;;;1.17;0.80;;;9.10;71.40;;;;;;5086635;28;20055;-75
2021/01/29 03:47:58;;;;;;;2.63;0.65;;;9.10;69.90;;;;;;5085681;28;20048;-75
2021/01/29 03:50:46;;;;;;;6.53;1.25;;;9.10;68.40;;;;;;5089873;28;20116;-75
2021/01/29 03:53:34;;;;;;;1.10;0.57;;;9.10;68.00;;;;;;5091952;28;20063;-75
2021/01/29 03:56:16;;;;;;;1.20;0.60;;;9.10;67.10;;;;;;5084305;28;20055;-75
2021/01/29 03:58:56;;;;;;;2.38;0.60;;;9.10;68.30;;;;;;5086579;28;20059;-75
2021/01/29 04:01:37;;;;;;;2.92;0.40;;;9.10;68.40;;;;;;5090114;28;20138;-75
2021/01/29 04:04:10;;;;;;;1.65;0.82;;;9.00;69.00;;;;;;5092095;28;20046;-76
2021/01/29 04:06:43;;;;;;;3.83;0.70;;;9.00;70.10;;;;;;5086800;28;20050;-75
2021/01/29 04:09:13;;;;;;;1.15;0.43;;;9.00;71.40;;;;;;5093396;28;20074;-74
2021/01/29 04:11:47;;;;;;;2.47;0.60;;;9.10;69.90;;;;;;5092743;28;20052;-75
2021/01/29 04:14:20;;;;;;;0.98;0.63;;;9.00;70.20;;;;;;5090231;28;20044;-74
2021/01/29 04:16:50;;;;;;;3.15;0.80;;;9.00;70.60;;;;;;5086808;28;20553;-76
2021/01/29 04:19:25;;;;;;;2.30;0.80;;;9.00;70.80;;;;;;5091337;28;20926;-75
2021/01/29 04:21:57;;;;;;;0.95;0.50;;;9.00;71.20;;;;;;5093559;28;20053;-76
2021/01/29 04:24:26;;;;;;;3.58;0.70;;;8.90;72.70;;;;;;5088407;28;20048;-75
2021/01/29 04:26:59;;;;;;;1.35;0.50;;;8.90;73.70;;;;;;5088388;28;20052;-75
2021/01/29 04:29:32;;;;;;;2.72;0.60;;;8.90;74.30;;;;;;5076053;28;20055;-74
2021/01/29 04:32:04;;;;;;;2.42;0.50;;;8.80;74.60;;;;;;5076924;28;20052;-75
2021/01/29 04:34:37;;;;;;;3.60;0.70;;;8.80;75.30;;;;;;5080858;28;20048;-73
2021/01/29 04:37:08;;;;;;;1.08;0.50;;;8.80;75.20;;;;;;5076562;28;20063;-75
2021/01/29 04:39:39;;;;;;;3.78;0.70;;;8.80;73.80;;;;;;5081563;28;20048;-75
2021/01/29 04:42:16;;;;;;;1.95;0.77;;;8.70;74.50;;;;;;5091631;28;20052;-75
2021/01/29 04:45:19;;;;;;;2.53;0.50;;;8.80;74.70;;;;;;5087961;28;20048;-75
2021/01/29 04:47:53;;;;;;;0.95;0.30;;;8.80;73.60;;;;;;5085398;28;20043;-74
2021/01/29 04:50:34;;;;;;;0.85;0.40;;;8.70;72.90;;;;;;5094736;28;20138;-76
2021/01/29 04:53:31;;;;;;;1.80;0.30;;;8.80;71.20;;;;;;5094220;28;20051;-75
2021/01/29 04:56:32;;;;;;;2.80;0.40;;;8.80;71.60;;;;;;5078316;28;20075;-76
2021/01/29 04:59:17;;;;;;;1.45;0.43;;;8.80;68.40;;;;;;5088475;28;20052;-75
2021/01/29 05:02:01;;;;;;;1.23;0.35;;;8.90;67.40;;;;;;5091570;28;20040;-77
2021/01/29 05:05:14;;;;;;;0.40;0.20;;;9.00;62.90;;;;;;5080027;28;20075;-76
2021/01/29 05:08:15;;;;;;;0.68;0.40;;;9.00;61.10;;;;;;5092996;28;20070;-74
2021/01/29 05:11:01;;;;;;;2.30;0.30;;;9.00;61.60;;;;;;5092419;28;20044;-74
2021/01/29 05:13:47;;;;;;;3.10;0.60;;;9.00;61.60;;;;;;5079112;28;20047;-75
2021/01/29 05:16:31;;;;;;;2.17;0.65;;;8.90;63.10;;;;;;5089546;28;20052;-74
2021/01/29 05:19:24;;;;;;;0.68;0.38;;;9.00;61.60;;;;;;5091254;28;20672;-75
2021/01/29 05:22:21;;;;;;;0.40;0.30;;;9.00;62.50;;;;;;5085678;28;20490;-74
2021/01/29 05:25:11;;;;;;;0.25;0.17;;;9.00;63.00;;;;;;5086931;28;20048;-74
2021/01/29 05:27:54;;;;;;;0.75;0.40;;;9.00;63.70;;;;;;5087464;28;20406;-75
2021/01/29 05:30:37;;;;;;;0.28;0.20;;;9.00;65.50;;;;;;5085604;28;20058;-75
2021/01/29 05:33:23;;;;;;;1.73;0.32;;;9.00;65.90;;;;;;5088209;28;20048;-75
2021/01/29 05:36:25;;;;;;;1.90;0.30;;;8.90;67.70;;;;;;5088664;28;20052;-74
2021/01/29 05:39:00;;;;;;;0.63;0.28;;;8.90;71.90;;;;;;5085944;28;20418;-75
2021/01/29 05:41:55;;;;;;;1.33;0.60;;;8.80;74.90;;;;;;5090850;28;20048;-74
2021/01/29 05:44:52;;;;;;;2.05;0.40;;;8.80;76.90;;;;;;5083792;28;20057;-74
2021/01/29 05:47:52;;;;;;;1.02;0.30;;;8.90;76.30;;;;;;5087463;28;20046;-74
2021/01/29 05:50:33;;;;;;;1.83;0.35;;;8.90;75.40;;;;;;5085823;28;20661;-76
2021/01/29 05:53:13;;;;;;;0.57;0.25;;;8.80;76.20;;;;;;5080542;28;20059;-75
2021/01/29 05:55:47;;;;;;;0.77;0.32;;;8.80;77.00;;;;;;5092473;28;20044;-76
2021/01/29 05:58:48;;;;;;;2.00;0.60;;;8.80;76.90;;;;;;5088668;28;20405;-76
2021/01/29 06:01:34;;;;;;;2.15;0.60;;;8.90;75.00;;;;;;5078099;28;20064;-75
2021/01/29 06:04:28;;;;;;;1.50;0.50;;;8.90;74.70;;;;;;5079837;28;20141;-76
2021/01/29 06:07:20;;;;;;;0.70;0.30;;;9.00;73.50;;;;;;5089162;28;20570;-74
2021/01/29 06:10:22;;;;;;;1.30;0.40;;;9.00;72.40;;;;;;5085725;28;20130;-74
2021/01/29 06:13:26;;;;;;;2.08;0.30;;;9.00;71.00;;;;;;5085740;28;20056;-74
2021/01/29 06:16:22;;;;;;;0.57;0.43;;;9.00;69.90;;;;;;5091630;28;20063;-76
2021/01/29 06:19:20;;;;;;;0.68;0.20;;;9.10;69.90;;;;;;5080138;28;20123;-74
2021/01/29 06:22:32;;;;;;;0.50;0.30;;;9.10;69.60;;;;;;5071403;28;20410;-75
2021/01/29 06:25:16;;;;;;;1.02;0.50;;;9.10;71.80;;;;;;5044087;28;20048;-75
2021/01/29 06:28:22;;;;;;;0.93;0.47;;;9.00;73.90;;;;;;5078051;28;20128;-74
2021/01/29 06:31:33;;;;;;;4.88;0.68;;;9.00;75.40;;;;;;5005069;28;20045;-74
2021/01/29 06:34:14;;;;;;;3.60;0.60;;;8.90;76.80;;;;;;5000829;28;20086;-75
2021/01/29 06:37:01;;;;;;;3.35;0.57;;;8.90;76.90;;;;;;5073867;28;20040;-72
2021/01/29 06:39:47;;;;;;;2.97;0.55;;;8.90;76.70;;;;;;5084673;28;20052;-71
2021/01/29 06:42:26;;;;;;;2.83;0.50;;;9.00;75.70;;;;;;5085403;28;20075;-71
2021/01/29 06:45:19;;;;;;;1.13;0.43;;;9.00;75.90;;;;;;5087181;28;20063;-71
2021/01/29 06:48:16;;;;;;;1.77;0.30;;;9.00;75.00;;;;;;5073345;28;20051;-72
2021/01/29 06:51:07;;;;;;;1.92;0.30;;;9.30;66.90;;;;;;5082385;28;20127;-77
2021/01/29 06:54:01;;;;;;;0.55;0.30;;;9.40;59.90;;;;;;5080806;28;20052;-76
2021/01/29 06:56:50;;;;;;;0.70;0.28;;;9.60;49.60;;;;;;5084077;28;20055;-75
2021/01/29 06:59:41;;;;;;;1.27;0.15;;;9.80;46.40;;;;;;5086619;28;20109;-75
2021/01/29 07:02:28;;;;;;;0.20;0.10;;;9.60;45.90;;;;;;5085959;28;20082;-75
2021/01/29 07:05:18;;;;;;;0.30;0.17;;;9.70;43.50;;;;;;5085802;28;21236;-73
2021/01/29 07:07:59;;;;;;;0.15;0.10;;;9.70;41.90;;;;;;5085427;28;20044;-74
2021/01/29 07:10:49;;;;;;;0.60;0.28;;;9.50;42.50;;;;;;5084714;28;20059;-73
2021/01/29 07:13:31;;;;;;;2.15;0.20;;;9.60;42.50;;;;;;5081727;28;20139;-74
2021/01/29 07:16:16;;;;;;;1.02;0.35;;;9.60;41.90;;;;;;5084615;28;20756;-74
2021/01/29 07:19:07;;;;;;;0.30;0.22;;;9.50;43.40;;;;;;5087714;28;20048;-74
2021/01/29 07:21:48;;;;;;;0.40;0.30;;;9.60;41.90;;;;;;5081231;28;20049;-75
2021/01/29 07:24:35;;;;;;;2.38;2.05;;;9.60;41.80;;;;;;5083489;28;20059;-75
2021/01/29 07:27:15;;;;;;;0.80;0.35;;;9.50;42.90;;;;;;5084945;28;20060;-75
2021/01/29 07:30:04;;;;;;;0.50;0.20;;;9.60;41.90;;;;;;5086521;28;20044;-74
2021/01/29 07:32:42;;;;;;;0.35;0.20;;;9.60;40.20;;;;;;5083520;28;20044;-74
2021/01/29 07:35:17;;;;;;;0.45;0.20;;;9.50;41.80;;;;;;5083919;28;20048;-74
2021/01/29 07:38:29;;;;;;;0.30;0.20;;;9.50;40.90;;;;;;5082960;28;20041;-74
2021/01/29 07:41:18;;;;;;;1.58;0.20;;;9.60;38.30;;;;;;5070095;28;20080;-75
2021/01/29 07:44:19;;;;;;;0.50;0.25;;;9.70;37.70;;;;;;5079848;28;20044;-74
2021/01/29 07:47:10;;;;;;;0.73;0.20;;;9.70;37.50;;;;;;5017251;28;20063;-75
2021/01/29 07:49:49;;;;;;;0.20;0.20;;;9.80;37.00;;;;;;5078841;28;20051;-75
2021/01/29 07:52:30;;;;;;;1.10;0.30;;;9.70;37.30;;;;;;5081492;28;20136;-74
2021/01/29 07:55:04;;;;;;;1.10;0.20;;;9.70;37.50;;;;;;5084703;28;20060;-72
2021/01/29 07:57:51;;;;;;;0.90;0.30;;;9.80;36.50;;;;;;5085891;28;20476;-74
2021/01/29 08:00:25;;;;;;;1.48;0.47;;;9.90;35.90;;;;;;5085618;28;20043;-75
2021/01/29 08:03:22;;;;;;;0.57;0.28;;;9.90;34.00;;;;;;5079579;28;20125;-75
2021/01/29 08:05:59;;;;;;;1.80;0.73;;;9.90;34.90;;;;;;5084650;28;20052;-75
2021/01/29 08:08:29;;;;;;;0.63;0.38;;;9.90;35.10;;;;;;5084333;28;20052;-73
2021/01/29 08:10:59;;;;;;;0.65;0.30;;;9.90;33.80;;;;;;5083760;28;20051;-72
2021/01/29 08:13:37;;;;;;;0.65;0.38;;;10.00;33.30;;;;;;5076356;28;20048;-72
2021/01/29 08:16:21;;;;;;;0.73;0.32;;;10.10;31.90;;;;;;5082285;28;20418;-72
2021/01/29 08:18:59;;;;;;;0.75;0.30;;;10.10;30.60;;;;;;5085239;28;20115;-72
2021/01/29 08:21:52;;;;;;;2.28;0.30;;;10.10;30.90;;;;;;5084797;28;20062;-71
2021/01/29 08:24:38;;;;;;;0.30;0.25;;;10.10;30.40;;;;;;5085446;28;20044;-70
2021/01/29 08:27:28;;;;;;;0.90;0.57;;;10.10;30.90;;;;;;5086908;28;20052;-72
2021/01/29 08:30:15;;;;;;;1.38;0.30;;;10.10;31.70;;;;;;5082277;28;20048;-71
2021/01/29 08:33:05;;;;;;;0.90;0.20;;;10.10;31.90;;;;;;5084054;28;20048;-73
2021/01/29 08:35:59;;;;;;;0.45;0.22;;;10.10;31.70;;;;;;5085441;28;20056;-75
2021/01/29 08:38:34;;;;;;;1.63;0.93;;;10.20;31.70;;;;;;5085370;28;20044;-74
2021/01/29 08:41:13;;;;;;;1.10;0.50;;;10.20;31.90;;;;;;5087992;28;20054;-73
2021/01/29 08:44:24;;;;;;;4.68;0.50;;;10.20;32.10;;;;;;5084436;28;20123;-74
2021/01/29 08:47:16;;;;;;;0.57;0.30;;;10.20;32.90;;;;;;5083994;28;20062;-74
2021/01/29 08:49:58;;;;;;;0.93;0.32;;;10.20;32.90;;;;;;5085900;28;20415;-74
2021/01/29 08:52:52;;;;;;;1.50;0.40;;;10.10;36.20;;;;;;5084867;28;20044;-76
2021/01/29 08:55:30;;;;;;;1.05;0.95;;;10.10;36.80;;;;;;5088793;28;20489;-75
2021/01/29 08:58:08;;;;;;;0.88;0.32;;;10.20;36.60;;;;;;5083870;28;20136;-75
2021/01/29 09:00:37;;;;;;;1.20;0.40;;;10.30;34.90;;;;;;5088234;28;20079;-76
2021/01/29 09:03:17;;;;;;;2.35;1.38;;;10.50;29.90;;;;;;5084351;28;20049;-74
2021/01/29 09:05:49;;;;;;;0.52;0.38;;;10.70;27.20;;;;;;5087090;28;20131;-74
2021/01/29 09:08:20;;;;;;;1.02;0.40;;;10.80;27.70;;;;;;5088194;28;20040;-74
2021/01/29 09:11:04;;;;;;;1.88;0.60;;;10.90;27.30;;;;;;5088533;28;20410;-75
2021/01/29 09:13:33;;;;;;;1.15;0.50;;;10.90;26.10;;;;;;5084156;28;20059;-76
2021/01/29 09:16:05;;;;;;;3.10;0.40;;;11.00;24.90;;;;;;5091304;28;20044;-76
2021/01/29 09:18:40;;;;;;;0.77;0.30;;;11.10;23.00;;;;;;5085265;28;20178;-76
2021/01/29 09:21:09;;;;;;;;;;;11.20;21.00;;;;;;5090340;28;20064;-75
2021/01/29 09:23:46;;;;;;;1.88;0.40;;;11.20;20.20;;;;;;5083084;28;19924;-76
2021/01/29 09:26:21;;;;;;;2.55;0.40;;;11.20;17.90;;;;;;5087732;28;20075;-75
2021/01/29 09:28:57;;;;;;;7.65;1.00;;;11.30;16.40;;;;;;5085182;28;20040;-74
2021/01/29 09:31:28;;;;;;;1.50;0.60;;;11.10;15.40;;;;;;5084301;28;20048;-76
2021/01/29 09:34:01;;;;;;;2.53;0.70;;;11.00;16.40;;;;;;5083424;28;20052;-75
2021/01/29 09:36:30;;;;;;;3.35;0.88;;;10.80;16.90;;;;;;5086689;28;20048;-75
2021/01/29 09:39:01;;;;;;;7.90;1.17;;;10.70;18.30;;;;;;5088206;28;20097;-73
2021/01/29 09:41:32;;;;;;;1.50;0.88;;;10.70;20.30;;;;;;5084216;28;20055;-74
2021/01/29 09:44:07;;;;;;;3.00;0.60;;;10.70;21.50;;;;;;5086157;28;20048;-74
2021/01/29 09:46:37;;;;;;;2.67;0.63;;;10.70;21.50;;;;;;5091801;28;20048;-73
2021/01/29 09:49:08;;;;;;;2.50;0.82;;;10.70;21.40;;;;;;5083230;28;20067;-75
2021/01/29 09:51:52;;;;;;;1.98;0.90;;;10.80;20.00;;;;;;5090790;28;20060;-75
2021/01/29 09:54:24;;;;;;;3.75;0.88;;;10.90;19.20;;;;;;5085891;28;20490;-73
2021/01/29 09:56:56;;;;;;;2.97;0.80;;;11.00;18.10;;;;;;5085800;28;20048;-74
2021/01/29 09:59:55;;;;;;;3.53;0.70;;;11.10;16.40;;;;;;5087488;28;20044;-73
2021/01/29 10:02:29;;;;;;;1.98;0.80;;;11.10;16.80;;;;;;5072896;28;20126;-74
2021/01/29 10:05:06;;;;;;;4.18;1.05;;;11.00;16.80;;;;;;5086813;28;20081;-73
2021/01/29 10:07:37;;;;;;;3.90;0.68;;;11.20;15.80;;;;;;5082410;28;20479;-73
2021/01/29 10:10:23;;;;;;;3.47;0.88;;;11.20;13.10;;;;;;5087621;28;20048;-73
2021/01/29 10:12:56;;;;;;;6.07;1.35;;;11.20;13.30;;;;;;5084685;28;20054;-71
2021/01/29 10:15:24;;;;;;;7.05;1.50;;;11.30;12.30;;;;;;5083514;28;20048;-73
2021/01/29 10:17:58;;;;;;;6.38;1.00;;;11.20;11.00;;;;;;5086469;28;20054;-72
2021/01/29 10:20:28;;;;;;;3.38;1.17;;;11.30;10.30;;;;;;5086955;28;20056;-73
2021/01/29 10:23:15;;;;;;;4.18;1.08;;;11.40;9.70;;;;;;5083479;28;20080;-72
2021/01/29 10:25:57;;;;;;;5.32;0.98;;;11.30;9.00;;;;;;5084544;28;20151;-72
2021/01/29 10:28:49;;;;;;;6.68;0.95;;;11.20;9.40;;;;;;5088458;28;20047;-73
2021/01/29 10:31:20;;;;;;;2.33;0.90;;;11.30;9.30;;;;;;5088876;28;20514;-74
2021/01/29 10:33:49;;;;;;;7.38;1.35;;;11.20;8.00;;;;;;5082577;28;20441;-73
2021/01/29 10:36:24;;;;;;;2.33;1.15;;;11.30;8.00;;;;;;5086670;28;20044;-73
2021/01/29 10:38:57;;;;;;;6.30;1.10;;;11.40;7.10;;;;;;5088420;28;20750;-75
2021/01/29 10:41:37;;;;;;;3.47;1.10;;;11.40;6.50;;;;;;5085241;28;20048;-73
2021/01/29 10:44:09;;;;;;;3.92;1.23;;;11.40;6.20;;;;;;5084907;28;20070;-72
2021/01/29 10:47:04;;;;;;;6.05;1.50;;;11.50;5.50;;;;;;5085095;28;20055;-73
2021/01/29 10:49:46;;;;;;;2.35;0.90;;;11.30;5.50;;;;;;5086454;28;20783;-71
2021/01/29 10:52:22;;;;;;;7.80;1.30;;;11.40;5.50;;;;;;5081615;28;20058;-72
2021/01/29 10:54:50;;;;;;;3.45;0.80;;;11.40;5.70;;;;;;5086192;28;20039;-72
2021/01/29 10:57:23;;;;;;;2.55;1.05;;;11.50;6.50;;;;;;5086323;28;20063;-73
2021/01/29 10:59:57;;;;;;;5.28;1.20;;;11.50;5.90;;;;;;5084945;28;20043;-71
2021/01/29 11:02:32;;;;;;;4.13;0.90;;;11.30;6.60;;;;;;5080481;28;20048;-71
2021/01/29 11:05:06;;;;;;;4.70;1.48;;;11.30;6.40;;;;;;5083364;28;20135;-70
2021/01/29 11:07:34;;;;;;;;;;;11.70;6.90;;;;;;5085447;28;20055;-70
2021/01/29 11:10:07;;;;;;;3.10;0.93;;;11.90;5.80;;;;;;5086107;28;19927;-69
2021/01/29 11:12:36;;;;;;;4.35;0.80;;;12.20;6.00;;;;;;5082386;28;20058;-70
2021/01/29 11:15:14;;;;;;;6.10;1.33;;;12.30;4.40;;;;;;5082049;28;20041;-69
2021/01/29 11:17:49;;;;;;;7.05;1.10;;;12.30;4.30;;;;;;5086019;28;20048;-69
2021/01/29 11:20:20;;;;;;;6.10;1.27;;;13.00;2.90;;;;;;5086308;28;20097;-73
2021/01/29 11:22:55;;;;;;;5.90;1.30;;;12.20;3.00;;;;;;5079153;28;20048;-69
2021/01/29 11:25:57;;;;;;;2.65;1.15;;;12.20;4.50;;;;;;5086000;28;20048;-73
2021/01/29 11:28:47;;;;;;;4.47;1.13;;;11.70;5.20;;;;;;5087646;28;20048;-72
2021/01/29 11:31:19;;;;;;;5.30;1.17;;;11.50;5.10;;;;;;5086016;28;20060;-71
2021/01/29 11:33:49;;;;;;;4.25;1.42;;;11.70;5.20;;;;;;5082154;28;20106;-70
2021/01/29 11:36:33;;;;;;;8.32;1.45;;;12.00;5.40;;;;;;5082334;28;20051;-71
2021/01/29 11:39:09;;;;;;;5.80;1.63;;;11.60;4.50;;;;;;5085858;28;20059;-71
2021/01/29 11:41:48;;;;;;;3.50;0.95;;;11.70;4.80;;;;;;5084891;28;20060;-71
2021/01/29 11:44:24;;;;;;;4.60;1.33;;;11.70;4.70;;;;;;5083830;28;20047;-71
2021/01/29 11:47:01;;;;;;;4.80;1.33;;;11.70;5.20;;;;;;5083903;28;20059;-70
2021/01/29 11:49:32;;;;;;;6.57;1.33;;;11.70;6.00;;;;;;5086429;28;20093;-70
2021/01/29 11:52:08;;;;;;;2.35;1.08;;;11.70;5.30;;;;;;5083207;28;20498;-70
2021/01/29 11:54:42;;;;;;;4.72;1.30;;;11.60;5.90;;;;;;5084747;28;20842;-71
2021/01/29 11:57:11;;;;;;;;;;;11.60;6.00;;;;;;5089128;28;20048;-70
2021/01/29 11:59:48;;;;;;;5.70;1.17;;;11.40;6.60;;;;;;5086241;28;19936;-70
2021/01/29 12:02:27;;;;;;;4.80;1.60;;;11.30;8.10;;;;;;5081885;28;20058;-72
2021/01/29 12:05:08;;;;;;;4.03;0.80;;;10.90;9.70;;;;;;5080641;28;20048;-72
2021/01/29 12:07:42;;;;;;;4.28;0.80;;;10.80;11.10;;;;;;5084824;28;20052;-71
2021/01/29 12:10:16;;;;;;;5.03;1.10;;;10.80;9.90;;;;;;5086653;28;20052;-72
2021/01/29 12:12:51;;;;;;;5.20;1.37;;;10.70;9.40;;;;;;5082017;28;20062;-70
2021/01/29 12:15:25;;;;;;;5.95;1.38;;;10.60;9.70;;;;;;5086704;28;20044;-71
2021/01/29 12:17:57;;;;;;;5.82;1.25;;;10.80;9.20;;;;;;5086597;28;20109;-71
2021/01/29 12:20:29;;;;;;;2.65;0.90;;;10.90;9.00;;;;;;5088405;28;20040;-73
2021/01/29 12:23:12;;;;;;;6.15;1.83;;;10.90;8.10;;;;;;5083022;28;20055;-72
2021/01/29 12:25:54;;;;;;;4.80;1.30;;;10.70;7.60;;;;;;5085589;28;20052;-71
2021/01/29 12:28:31;;;;;;;7.10;1.55;;;10.80;8.40;;;;;;5084292;28;20047;-71
2021/01/29 12:31:07;;;;;;;6.00;1.10;;;10.70;8.30;;;;;;5086729;28;20052;-71
2021/01/29 12:33:47;;;;;;;5.82;1.40;;;10.70;8.10;;;;;;5083686;28;20048;-70
2021/01/29 12:36:19;;;;;;;6.35;1.40;;;10.80;8.00;;;;;;5086199;28;20059;-71
2021/01/29 12:38:53;;;;;;;4.85;1.20;;;10.70;8.80;;;;;;5085840;28;20040;-71
2021/01/29 12:41:27;;;;;;;6.30;1.38;;;10.70;7.40;;;;;;5089390;28;20048;-71
2021/01/29 12:44:11;;;;;;;3.83;1.05;;;10.90;7.20;;;;;;5084862;28;20109;-72
2021/01/29 12:46:45;;;;;;;5.33;1.03;;;11.00;6.80;;;;;;5084153;28;20044;-70
2021/01/29 12:49:19;;;;;;;6.28;1.13;;;11.00;6.40;;;;;;5084704;28;20389;-71
2021/01/29 12:51:51;;;;;;;6.25;1.30;;;10.90;7.30;;;;;;5085568;28;20063;-70
2021/01/29 12:54:22;;;;;;;3.40;0.90;;;11.00;9.20;;;;;;5083270;28;20044;-71
2021/01/29 12:56:58;;;;;;;5.05;0.93;;;10.80;9.20;;;;;;5084695;28;20048;-71
2021/01/29 12:59:36;;;;;;;3.75;0.80;;;10.80;10.10;;;;;;5081276;28;20055;-70
2021/01/29 13:02:23;;;;;;;5.20;1.10;;;10.70;10.50;;;;;;5083536;28;20060;-70
2021/01/29 13:04:55;;;;;;;2.78;0.95;;;10.50;10.80;;;;;;5083178;28;20056;-71
2021/01/29 13:07:27;;;;;;;2.72;0.70;;;10.60;11.60;;;;;;5079054;28;20040;-71
2021/01/29 13:10:09;;;;;;;2.10;0.60;;;10.40;11.70;;;;;;5085840;28;20051;-70
2021/01/29 13:12:49;;;;;;;1.67;0.70;;;10.50;12.40;;;;;;5082268;28;20044;-73
2021/01/29 13:15:31;;;;;;;2.38;0.80;;;10.50;12.90;;;;;;5080929;28;20242;-73
2021/01/29 13:18:03;;;;;;;3.30;0.93;;;10.40;12.90;;;;;;5087326;28;20052;-73
2021/01/29 13:20:34;;;;;;;2.30;0.70;;;10.40;13.40;;;;;;5088611;28;20048;-75
2021/01/29 13:23:18;;;;;;;3.60;0.82;;;10.40;13.60;;;;;;5083134;28;20082;-71
2021/01/29 13:25:58;;;;;;;5.83;0.83;;;10.40;14.20;;;;;;5084592;28;20471;-72
2021/01/29 13:28:28;;;;;;;6.57;1.48;;;10.40;14.10;;;;;;5088680;28;20044;-72
2021/01/29 13:31:10;;;;;;;5.03;0.90;;;10.30;14.70;;;;;;5085762;28;20118;-71
2021/01/29 13:33:46;;;;;;;3.47;0.93;;;10.30;14.50;;;;;;5080495;28;20497;-74
2021/01/29 13:36:28;;;;;;;1.95;0.57;;;10.40;14.50;;;;;;5087720;28;20237;-72
2021/01/29 13:39:09;;;;;;;0.90;0.50;;;10.30;14.00;;;;;;5087427;28;20528;-72
2021/01/29 13:41:44;;;;;;;3.00;0.80;;;10.50;13.50;;;;;;5084298;28;20494;-73
2021/01/29 13:44:27;;;;;;;2.90;0.80;;;10.60;13.30;;;;;;5086319;28;20689;-73
2021/01/29 13:46:54;;;;;;;2.60;0.70;;;10.70;12.40;;;;;;5087610;28;20059;-74
2021/01/29 13:49:32;;;;;;;4.15;0.60;;;10.80;12.00;;;;;;5088740;28;20063;-72
2021/01/29 13:52:00;;;;;;;3.67;0.90;;;10.70;12.00;;;;;;5087075;28;20580;-72
2021/01/29 13:54:34;;;;;;;2.65;0.93;;;10.90;12.00;;;;;;5087121;28;20993;-71